ブラジリア の空港の天気 - METARとTAF

ブラジリア国際空港 ( SBBR / BSB ) - ブラジル ブラジリア
飛行場実況気象(Metar)
観測時間10/25 18:00 BRT (10/25 21:00 UTC)
風向・風速西北西 7m/s
視程10km以上
天気現象
少しの雲 雲底高度 1220m
全天の4割程度の雲 雲底高度 3050m
気温26℃
湿度61%
気圧1014hPa
METARSBBR 252100Z 29013KT 9999 FEW040 SCT100 26/18 Q1014
過去の天気等 Google飛行場航空写真 Wunderground天気予報

過去48時間のMETAR

飛行場予報(TAF)
発表時間: 10/25 13:15 BRT (10/25 16:15 UTC)
予報対象時間: 25日15時 BRT ~ 26日15時 BRT
風向・風速西北西 5m/s
視程7000m
天気現象雷雨
全天の4割程度の雲 雲底高度 910m
少しの積乱雲 雲底高度 1220m
25日18時 BRT ~ 25日20時 BRT に徐々に
視程10km以上
天気現象運行に影響にある天気現象が終了
全天の4割程度の雲 雲底高度 910m
26日6時 BRT ~ 26日8時 BRT に徐々に
視程6000m
天気現象
全天の8割程度の雲 雲底高度 240m
TAF SBBR 251615Z 2518/2618 29010KT 7000 TSRA SCT030 FEW040CB TX26/2518Z TN19/2608Z
BECMG 2521/2523 9999 NSW SCT030
BECMG 2609/2611 6000 RA BKN008 RMK PGG